Time;durP1;ratioP1;P1;durP2;ratioP2;P2;SDS_P1;SDS_P2;PMS_P1;PMS_P2;Temp;Humidity;BMP_temperature;BMP_pressure;BME280_temperature;BME280_humidity;BME280_pressure;Samples;Min_cycle;Max_cycle;Signal;HPM_P1;HPM_P2
2023/02/21 02:14:41;;;;;;;;;55.50;47.00;;;;;4.80;100.00;101759.31;5141489;27;45441;-75
2023/02/21 02:17:48;;;;;;;;;59.50;48.75;;;;;4.74;100.00;101755.31;5129112;27;45608;-75
2023/02/21 02:20:37;;;;;;;;;50.25;43.50;;;;;4.73;100.00;101758.88;5141544;27;45337;-75
2023/02/21 02:23:42;;;;;;;;;59.75;48.75;;;;;4.70;100.00;101751.22;5140944;27;45416;-75
2023/02/21 02:26:34;;;;;;;;;57.50;47.25;;;;;4.68;100.00;101751.31;5141138;27;45271;-75
2023/02/21 02:29:11;;;;;;;;;53.50;43.25;;;;;4.64;100.00;101747.22;5122518;27;45363;-75
2023/02/21 02:31:51;;;;;;;;;51.00;42.25;;;;;4.66;100.00;101750.59;5140535;27;45333;-75
2023/02/21 02:34:42;;;;;;;;;55.75;46.75;;;;;4.65;100.00;101742.81;5140859;27;46316;-75
2023/02/21 02:37:18;;;;;;;;;58.25;48.00;;;;;4.67;100.00;101749.63;5141005;27;45337;-75
2023/02/21 02:40:10;;;;;;;;;51.25;41.50;;;;;4.67;100.00;101733.84;5141400;27;45230;-75
2023/02/21 02:42:54;;;;;;;;;59.75;48.75;;;;;4.68;100.00;101730.25;5139750;27;45301;-75
2023/02/21 02:45:25;;;;;;;;;60.50;50.50;;;;;4.66;100.00;101733.94;5140672;27;45375;-75
2023/02/21 02:47:58;;;;;;;;;60.75;51.00;;;;;4.65;100.00;101734.91;5128179;27;45474;-75
2023/02/21 02:50:26;;;;;;;;;60.75;49.25;;;;;4.64;100.00;101734.06;5139638;27;46453;-75
2023/02/21 02:52:53;;;;;;;;;61.75;52.75;;;;;4.63;100.00;101735.03;5140980;27;45290;-75
2023/02/21 02:56:00;;;;;;;;;59.00;49.25;;;;;4.65;100.00;101725.22;5140635;27;45305;-75
2023/02/21 02:58:31;;;;;;;;;56.50;47.00;;;;;4.63;100.00;101721.84;5118448;27;45321;-75
2023/02/21 03:01:13;;;;;;;;;58.25;50.00;;;;;4.64;100.00;101726.16;5122304;27;45358;-75
2023/02/21 03:03:58;;;;;;;;;58.25;48.50;;;;;4.70;100.00;101726.69;5140838;27;45277;-75
2023/02/21 03:06:26;;;;;;;;;58.00;48.50;;;;;4.67;100.00;101723.31;5140660;27;45310;-75
2023/02/21 03:09:12;;;;;;;;;60.25;50.50;;;;;4.63;100.00;101718.38;5140817;27;45371;-75
2023/02/21 03:11:49;;;;;;;;;60.25;49.25;;;;;4.64;100.00;101704.28;5122959;27;45444;-75
2023/02/21 03:14:18;;;;;;;;;58.50;48.50;;;;;4.62;100.00;101720.19;5118530;27;46008;-75
2023/02/21 03:16:50;;;;;;;;;57.25;46.50;;;;;4.57;100.00;101717.03;5116862;27;48785;-75
2023/02/21 03:19:30;;;;;;;;;57.75;48.25;;;;;4.60;100.00;101721.22;5133361;27;45311;-75
2023/02/21 03:22:00;;;;;;;;;59.25;50.25;;;;;4.54;100.00;101711.97;5109424;27;45487;-75
2023/02/21 03:24:28;;;;;;;;;59.50;48.75;;;;;4.57;100.00;101716.16;5140230;27;45340;-75
2023/02/21 03:26:59;;;;;;;;;52.25;45.75;;;;;4.56;100.00;101717.97;5121694;27;47324;-76
2023/02/21 03:29:25;;;;;;;;;59.50;49.00;;;;;4.54;100.00;101715.47;5121510;27;45658;-76
2023/02/21 03:31:58;;;;;;;;;62.50;51.75;;;;;4.54;100.00;101711.97;5140554;27;45482;-75
2023/02/21 03:34:24;;;;;;;;;60.00;49.25;;;;;4.46;100.00;101698.53;5121488;27;47070;-75
2023/02/21 03:36:50;;;;;;;;;56.25;48.25;;;;;4.50;100.00;101700.84;5140002;27;45362;-75
2023/02/21 03:39:15;;;;;;;;;56.25;47.75;;;;;4.49;100.00;101706.22;5138789;27;45696;-75
2023/02/21 03:41:40;;;;;;;;;52.75;43.50;;;;;4.45;100.00;101702.94;5130596;27;45680;-75
2023/02/21 03:44:06;;;;;;;;;61.50;49.75;;;;;4.44;100.00;101700.44;5138727;27;45220;-75
2023/02/21 03:46:31;;;;;;;;;61.25;49.00;;;;;4.41;100.00;101701.50;5143880;27;45327;-75
2023/02/21 03:48:57;;;;;;;;;58.00;48.50;;;;;4.39;100.00;101698.13;5125178;27;45422;-75
2023/02/21 03:51:22;;;;;;;;;57.00;45.00;;;;;4.37;100.00;101697.41;5144051;27;45769;-74
2023/02/21 03:53:47;;;;;;;;;60.75;50.25;;;;;4.35;100.00;101707.19;5143608;27;45452;-75
2023/02/21 03:56:12;;;;;;;;;67.00;55.50;;;;;4.29;100.00;101692.69;5143800;27;46290;-75
2023/02/21 03:58:38;;;;;;;;;75.75;61.25;;;;;4.33;100.00;101702.03;5143508;27;45542;-75
2023/02/21 04:01:03;;;;;;;;;71.00;57.00;;;;;4.29;100.00;101703.22;5144109;27;45406;-75
2023/02/21 04:03:29;;;;;;;;;65.75;55.50;;;;;4.28;100.00;101706.81;5124876;27;46926;-75
2023/02/21 04:05:54;;;;;;;;;69.00;55.75;;;;;4.23;100.00;101699.22;5124841;27;46693;-75
2023/02/21 04:08:20;;;;;;;;;66.25;55.50;;;;;4.22;100.00;101686.19;5124469;27;45293;-74
2023/02/21 04:10:45;;;;;;;;;65.50;52.75;;;;;4.27;100.00;101691.94;5125324;27;45383;-75
2023/02/21 04:13:11;;;;;;;;;61.25;50.25;;;;;4.27;100.00;101694.56;5143335;27;45513;-75
2023/02/21 04:15:36;;;;;;;;;62.25;50.50;;;;;4.24;100.00;101684.25;5124870;27;46037;-75
2023/02/21 04:18:01;;;;;;;;;63.00;50.75;;;;;4.24;100.00;101685.13;5143311;27;45389;-75
2023/02/21 04:20:27;;;;;;;;;57.75;47.50;;;;;4.23;100.00;101678.19;5124636;27;45284;-74
2023/02/21 04:22:52;;;;;;;;;60.50;48.00;;;;;4.21;100.00;101666.91;5143167;27;45435;-75
2023/02/21 04:25:17;;;;;;;;;58.50;48.50;;;;;4.27;100.00;101668.25;5141819;27;46895;-75
2023/02/21 04:27:43;;;;;;;;;62.50;49.75;;;;;4.22;100.00;101676.47;5142952;27;45409;-75
2023/02/21 04:30:09;;;;;;;;;59.00;49.00;;;;;4.22;100.00;101673.84;5143681;27;45346;-75
2023/02/21 04:32:34;;;;;;;;;57.25;48.00;;;;;4.19;100.00;101670.59;5142940;27;45384;-75
2023/02/21 04:34:59;;;;;;;;;58.00;44.00;;;;;4.14;100.00;101661.25;5142857;27;46112;-75
2023/02/21 04:37:25;;;;;;;;;62.25;51.50;;;;;4.20;100.00;101669.66;5142949;27;45281;-75
2023/02/21 04:39:50;;;;;;;;;60.50;49.75;;;;;4.21;100.00;101666.91;5124625;27;45409;-75
2023/02/21 04:42:16;;;;;;;;;56.25;45.50;;;;;4.21;100.00;101679.22;5142933;27;45510;-75
2023/02/21 04:44:41;;;;;;;;;58.50;46.50;;;;;4.17;100.00;101676.78;5142956;27;45295;-75
2023/02/21 04:47:06;;;;;;;;;53.50;45.00;;;;;4.15;100.00;101681.34;5142664;27;45270;-74
2023/02/21 04:49:32;;;;;;;;;60.50;48.75;;;;;4.15;100.00;101688.38;5124577;27;45360;-76
2023/02/21 04:51:57;;;;;;;;;51.00;44.00;;;;;4.13;100.00;101682.41;5141085;27;47785;-75
2023/02/21 04:54:23;;;;;;;;;57.00;46.00;;;;;4.11;100.00;101686.94;5142283;27;45440;-75
2023/02/21 04:56:48;;;;;;;;;62.00;49.50;;;;;4.02;100.00;101678.75;5142760;27;45372;-75
2023/02/21 04:59:13;;;;;;;;;58.75;48.25;;;;;4.06;100.00;101689.88;5142837;27;45298;-75
2023/02/21 05:01:39;;;;;;;;;58.25;46.50;;;;;4.03;100.00;101687.47;5142592;27;45421;-75
2023/02/21 05:04:04;;;;;;;;;55.75;46.00;;;;;3.99;100.00;101680.75;5142630;27;46097;-76
2023/02/21 05:06:30;;;;;;;;;58.25;47.50;;;;;3.99;100.00;101675.47;5142356;27;45296;-75
2023/02/21 05:08:56;;;;;;;;;56.50;44.00;;;;;4.04;100.00;101686.50;5142970;27;45309;-75
2023/02/21 05:11:23;;;;;;;;;57.50;47.75;;;;;4.01;100.00;101686.75;5142156;27;45458;-74
2023/02/21 05:13:48;;;;;;;;;63.00;50.50;;;;;3.99;100.00;101693.91;5142498;27;46179;-75
2023/02/21 05:16:14;;;;;;;;;59.25;49.00;;;;;3.95;100.00;101688.00;5123715;27;45379;-75
2023/02/21 05:18:44;;;;;;;;;52.25;44.75;;;;;3.96;100.00;101687.06;5123877;27;45414;-75
2023/02/21 05:21:09;;;;;;;;;53.50;44.50;;;;;3.90;100.00;101680.41;5123565;27;47280;-75
2023/02/21 05:23:38;;;;;;;;;59.00;48.75;;;;;3.94;100.00;101694.22;5142136;27;46249;-74
2023/02/21 05:26:10;;;;;;;;;59.00;47.25;;;;;3.94;100.00;101690.72;5123456;27;45336;-74
2023/02/21 05:28:37;;;;;;;;;50.25;41.25;;;;;3.91;100.00;101679.50;5142198;27;45298;-75
2023/02/21 05:31:03;;;;;;;;;55.00;45.00;;;;;3.90;100.00;101675.16;5142097;27;45475;-75
2023/02/21 05:33:28;;;;;;;;;52.50;44.00;;;;;3.92;100.00;101681.16;5123327;27;48537;-75
2023/02/21 05:35:54;;;;;;;;;58.75;48.75;;;;;3.95;100.00;101679.28;5142186;27;45314;-75
2023/02/21 05:38:22;;;;;;;;;59.25;47.75;;;;;3.93;100.00;101676.75;5142204;27;45349;-75
2023/02/21 05:40:47;;;;;;;;;58.25;48.25;;;;;3.92;100.00;101668.00;5123079;27;46502;-75
2023/02/21 05:43:13;;;;;;;;;56.25;43.25;;;;;3.93;100.00;101671.50;5123437;27;47206;-75
2023/02/21 05:45:38;;;;;;;;;58.75;46.75;;;;;3.94;100.00;101682.84;5141672;27;45285;-75
2023/02/21 05:48:04;;;;;;;;;57.25;47.50;;;;;3.91;100.00;101670.75;5142232;27;45209;-75
2023/02/21 05:50:30;;;;;;;;;57.50;47.25;;;;;3.87;100.00;101680.66;5141836;27;45280;-75
2023/02/21 05:52:56;;;;;;;;;61.50;49.75;;;;;3.86;100.00;101675.50;5140143;27;47587;-75
2023/02/21 05:55:22;;;;;;;;;60.50;50.75;;;;;3.88;100.00;101674.44;5141747;27;45349;-75
2023/02/21 05:57:47;;;;;;;;;59.25;47.50;;;;;3.87;100.00;101664.88;5140049;27;45435;-75
2023/02/21 06:00:22;;;;;;;;;59.25;50.25;;;;;3.85;100.00;101668.53;5123018;27;46200;-75
2023/02/21 06:02:49;;;;;;;;;66.00;52.25;;;;;3.80;100.00;101660.97;5122916;27;47240;-75
2023/02/21 06:05:15;;;;;;;;;61.75;50.50;;;;;3.81;100.00;101659.19;5136798;27;45937;-75
2023/02/21 06:07:41;;;;;;;;;62.50;51.00;;;;;3.78;100.00;101644.47;5118012;27;45464;-75
2023/02/21 06:10:06;;;;;;;;;60.25;49.50;;;;;3.77;100.00;101643.63;5141499;27;45247;-75
2023/02/21 06:12:32;;;;;;;;;57.00;48.25;;;;;3.76;100.00;101635.84;5141529;27;46367;-75
2023/02/21 06:14:57;;;;;;;;;62.75;50.25;;;;;3.72;100.00;101639.63;5141334;27;45357;-76
2023/02/21 06:17:22;;;;;;;;;62.25;49.25;;;;;3.75;100.00;101642.91;5139910;27;45753;-76
2023/02/21 06:19:47;;;;;;;;;50.50;44.00;;;;;3.74;100.00;101635.94;5126039;27;45268;-75
2023/02/21 06:22:13;;;;;;;;;55.50;44.75;;;;;3.71;100.00;101632.72;5141231;27;45342;-75
2023/02/21 06:24:38;;;;;;;;;63.50;51.00;;;;;3.70;100.00;101631.00;5140510;27;45476;-77
2023/02/21 06:27:04;;;;;;;;;49.25;43.50;;;;;3.67;100.00;101621.53;5141453;27;45482;-75
2023/02/21 06:29:29;;;;;;;;;60.25;48.25;;;;;3.66;100.00;101619.88;5141029;27;45203;-75
2023/02/21 06:31:56;;;;;;;;;60.25;50.25;;;;;3.65;100.00;101624.28;5140078;27;47266;-76
2023/02/21 06:34:22;;;;;;;;;58.25;47.50;;;;;3.63;100.00;101628.81;5122255;27;45829;-75
2023/02/21 06:36:51;;;;;;;;;59.25;50.00;;;;;3.59;100.00;101619.44;5141166;27;45403;-75
2023/02/21 06:39:16;;;;;;;;;65.75;52.75;;;;;3.60;100.00;101621.16;5136439;27;45469;-77
2023/02/21 06:41:41;;;;;;;;;60.25;50.25;;;;;3.59;100.00;101616.81;5110640;27;47124;-76
2023/02/21 06:44:07;;;;;;;;;59.25;48.75;;;;;3.55;100.00;101620.63;5141704;27;45334;-77
2023/02/21 06:46:35;;;;;;;;;59.00;48.00;;;;;3.61;100.00;101611.44;5144524;27;45087;-76
2023/02/21 06:49:00;;;;;;;;;62.75;48.50;;;;;3.59;100.00;101608.09;5141471;27;45394;-75
2023/02/21 06:51:28;;;;;;;;;60.00;49.00;;;;;3.62;100.00;101611.34;5135497;27;45548;-75
2023/02/21 06:53:55;;;;;;;;;61.00;49.00;;;;;3.61;100.00;101607.03;5135814;27;45282;-75
2023/02/21 06:56:21;;;;;;;;;62.00;50.50;;;;;3.64;100.00;101614.72;5121386;27;45380;-76
2023/02/21 06:58:46;;;;;;;;;59.00;49.75;;;;;3.69;100.00;101610.94;5139738;27;45851;-75
2023/02/21 07:01:12;;;;;;;;;57.75;49.00;;;;;3.66;100.00;101607.56;5127530;27;46037;-75
2023/02/21 07:03:39;;;;;;;;;63.25;49.50;;;;;3.69;100.00;101608.28;5135969;27;45274;-75
2023/02/21 07:06:04;;;;;;;;;62.25;51.25;;;;;3.71;100.00;101614.31;5144666;27;45330;-75
2023/02/21 07:08:29;;;;;;;;;58.50;49.50;;;;;3.75;100.00;101607.88;5143161;27;45331;-75
2023/02/21 07:10:55;;;;;;;;;59.50;49.25;;;;;3.74;100.00;101612.28;5144485;27;46111;-75
2023/02/21 07:13:21;;;;;;;;;66.00;53.00;;;;;3.80;100.00;101618.88;5124736;27;45698;-75
2023/02/21 07:15:46;;;;;;;;;64.00;53.25;;;;;3.82;100.00;101618.78;5124721;27;45337;-75
2023/02/21 07:18:12;;;;;;;;;59.50;48.50;;;;;3.83;100.00;101616.06;5130555;27;45445;-74
2023/02/21 07:20:37;;;;;;;;;57.75;48.75;;;;;3.82;100.00;101614.38;5147866;27;45324;-75
2023/02/21 07:23:02;;;;;;;;;62.75;50.75;;;;;3.83;100.00;101623.13;5147962;27;45267;-75
2023/02/21 07:25:28;;;;;;;;;61.50;50.25;;;;;3.82;100.00;101619.63;5149082;27;45412;-75
2023/02/21 07:27:54;;;;;;;;;60.25;51.00;;;;;3.86;100.00;101620.28;5143960;27;45275;-75
2023/02/21 07:30:20;;;;;;;;;63.00;50.75;;;;;3.87;100.00;101614.91;5147431;27;45668;-74
2023/02/21 07:32:45;;;;;;;;;67.25;53.00;;;;;3.92;100.00;101611.91;5145250;27;45296;-75
2023/02/21 07:35:11;;;;;;;;;60.75;51.00;;;;;3.93;100.00;101608.38;5133889;27;45265;-75
2023/02/21 07:37:36;;;;;;;;;59.25;49.25;;;;;3.97;100.00;101601.06;5139429;27;45349;-75
2023/02/21 07:40:02;;;;;;;;;50.25;44.75;;;;;3.98;100.00;101611.50;5135712;27;46101;-75
2023/02/21 07:42:27;;;;;;;;;23.50;22.50;;;;;4.02;100.00;101607.72;5149179;27;45255;-76
2023/02/21 07:44:56;;;;;;;;;62.75;51.00;;;;;4.05;100.00;101606.66;5149728;27;45373;-75
2023/02/21 07:47:22;;;;;;;;;63.75;53.00;;;;;4.06;100.00;101610.94;5145459;27;45262;-75
2023/02/21 07:49:48;;;;;;;;;61.25;51.00;;;;;4.07;100.00;101598.66;5124450;27;45699;-75
2023/02/21 07:52:14;;;;;;;;;59.75;48.25;;;;;4.12;100.00;101607.88;5133413;27;45267;-74
2023/02/21 07:54:39;;;;;;;;;62.50;51.00;;;;;4.21;100.00;101605.53;5144528;27;45398;-75
2023/02/21 07:57:06;;;;;;;;;61.50;50.00;;;;;4.21;100.00;101602.91;5143574;27;45484;-76
2023/02/21 07:59:31;;;;;;;;;56.00;47.50;;;;;4.28;100.00;101604.16;5142445;27;46998;-75
2023/02/21 08:01:56;;;;;;;;;58.25;47.00;;;;;4.33;100.00;101606.44;5141228;27;45372;-75
2023/02/21 08:04:22;;;;;;;;;63.25;51.50;;;;;4.36;100.00;101604.44;5144180;27;45277;-75
2023/02/21 08:06:48;;;;;;;;;63.50;52.75;;;;;4.39;100.00;101596.31;5139697;27;45487;-75
2023/02/21 08:09:13;;;;;;;;;66.25;54.25;;;;;4.45;100.00;101595.00;5114955;27;47179;-74
2023/02/21 08:11:39;;;;;;;;;59.75;49.25;;;;;4.46;100.00;101596.69;5143258;27;45275;-75
2023/02/21 08:14:05;;;;;;;;;65.50;53.25;;;;;4.47;100.00;101601.00;5143741;27;45975;-76
2023/02/21 08:16:30;;;;;;;;;58.75;47.75;;;;;4.42;100.00;101593.44;5144091;27;45414;-75
2023/02/21 08:18:55;;;;;;;;;69.50;54.50;;;;;4.46;100.00;101590.59;5143957;27;48156;-75
2023/02/21 08:21:21;;;;;;;;;65.25;51.25;;;;;4.55;100.00;101588.13;5140960;27;45335;-74
2023/02/21 08:23:52;;;;;;;;;62.00;52.00;;;;;4.61;100.00;101584.19;5135318;27;45460;-75
2023/02/21 08:26:20;;;;;;;;;62.75;53.25;;;;;4.63;100.00;101579.66;5140633;27;45376;-74
2023/02/21 08:28:48;;;;;;;;;65.75;53.75;;;;;4.73;100.00;101582.41;5137199;27;46288;-74
2023/02/21 08:31:14;;;;;;;;;64.50;53.00;;;;;4.76;100.00;101562.94;5126584;27;45467;-74
2023/02/21 08:33:40;;;;;;;;;61.25;50.00;;;;;4.85;100.00;101572.75;5144453;27;44708;-74
2023/02/21 08:36:06;;;;;;;;;68.25;54.75;;;;;4.98;100.00;101569.19;5111429;27;45538;-75
2023/02/21 08:38:33;;;;;;;;;69.75;55.50;;;;;4.98;100.00;101562.16;5143101;27;45707;-75
2023/02/21 08:40:59;;;;;;;;;66.75;53.50;;;;;5.07;100.00;101562.38;5143123;27;45352;-75
2023/02/21 08:43:24;;;;;;;;;64.00;51.25;;;;;5.10;100.00;101557.75;5143049;27;45261;-75
2023/02/21 08:45:50;;;;;;;;;67.75;54.50;;;;;5.17;100.00;101556.31;5124254;27;45620;-75
2023/02/21 08:48:15;;;;;;;;;70.50;56.75;;;;;5.27;100.00;101563.50;5143066;27;45299;-74
2023/02/21 08:50:40;;;;;;;;;66.25;55.25;;;;;5.35;100.00;101563.72;5142584;27;45439;-75
2023/02/21 08:53:06;;;;;;;;;70.25;56.25;;;;;5.43;100.00;101555.22;5143025;27;45671;-75
2023/02/21 08:55:31;;;;;;;;;73.75;59.00;;;;;5.54;100.00;101563.13;5142653;27;45341;-75
2023/02/21 08:57:57;;;;;;;;;74.00;58.25;;;;;5.68;100.00;101569.97;5124105;27;47205;-75
2023/02/21 09:00:25;;;;;;;;;74.25;57.75;;;;;5.78;100.00;101559.50;5141199;27;45728;-78
2023/02/21 09:02:51;;;;;;;;;70.75;53.75;;;;;5.82;100.00;101552.19;5106258;27;46134;-75
2023/02/21 09:05:26;;;;;;;;;68.50;55.00;;;;;5.93;100.00;101552.16;5121802;27;45345;-76
2023/02/21 09:07:57;;;;;;;;;73.25;56.50;;;;;6.08;100.00;101554.59;5141874;27;45408;-78
2023/02/21 09:10:22;;;;;;;;;66.75;54.25;;;;;6.17;100.00;101553.81;5142301;27;45336;-75
2023/02/21 09:12:48;;;;;;;;;71.00;56.00;;;;;6.29;100.00;101554.59;5142511;27;45402;-75
2023/02/21 09:15:14;;;;;;;;;68.00;55.00;;;;;6.43;100.00;101565.84;5142348;27;45305;-75
2023/02/21 09:17:39;;;;;;;;;69.75;53.75;;;;;6.51;100.00;101562.56;5138711;27;46153;-76
2023/02/21 09:20:08;;;;;;;;;68.00;55.00;;;;;6.66;100.00;101563.94;5140445;27;45413;-76
2023/02/21 09:22:34;;;;;;;;;67.00;53.50;;;;;6.78;100.00;101558.59;5110714;27;45317;-78
2023/02/21 09:25:00;;;;;;;;;73.75;58.50;;;;;6.88;100.00;101561.31;5142108;27;45486;-76
2023/02/21 09:27:35;;;;;;;;;72.75;54.75;;;;;6.98;100.00;101559.56;5123344;27;48109;-77
2023/02/21 09:30:14;;;;;;;;;73.25;57.25;;;;;7.12;100.00;101553.09;5123432;27;45931;-78
2023/02/21 09:32:40;;;;;;;;;71.50;57.00;;;;;7.26;100.00;101562.50;5142214;27;45411;-78
2023/02/21 09:35:07;;;;;;;;;65.75;52.25;;;;;7.38;100.00;101562.38;5122763;27;46313;-79
2023/02/21 09:37:32;;;;;;;;;66.75;54.50;;;;;7.45;100.00;101553.78;5123006;27;47268;-75
2023/02/21 09:39:58;;;;;;;;;65.75;54.00;;;;;7.60;100.00;101565.81;5123568;27;45365;-75
2023/02/21 09:42:30;;;;;;;;;64.50;52.50;;;;;7.74;100.00;101561.94;5142046;27;45475;-75
2023/02/21 09:44:55;;;;;;;;;66.25;53.50;;;;;7.81;100.00;101553.34;5141655;27;45647;-75
2023/02/21 09:47:29;;;;;;;;;64.00;51.50;;;;;7.97;100.00;101559.94;5141999;27;45353;-75
2023/02/21 09:50:01;;;;;;;;;65.75;52.00;;;;;8.07;100.00;101552.00;5141983;27;45441;-75
2023/02/21 09:52:36;;;;;;;;;65.25;53.00;;;;;8.18;100.00;101549.22;5123186;27;45379;-75
2023/02/21 09:55:08;;;;;;;;;65.50;53.25;;;;;8.28;100.00;101551.03;5141423;27;45398;-76
2023/02/21 09:57:34;;;;;;;;;64.75;52.00;;;;;8.40;100.00;101554.38;5141728;27;45398;-75
2023/02/21 10:00:00;;;;;;;;;64.00;53.25;;;;;8.53;100.00;101551.47;5139943;27;45330;-75
2023/02/21 10:03:18;;;;;;;;;66.25;53.25;;;;;8.66;100.00;101549.38;5142197;27;45338;-75
2023/02/21 10:06:04;;;;;;;;;65.00;53.00;;;;;8.75;100.00;101538.91;5075617;27;45628;-75
2023/02/21 10:08:54;;;;;;;;;66.00;53.50;;;;;8.91;100.00;101544.44;5141082;27;45350;-75
2023/02/21 10:11:33;;;;;;;;;63.25;50.00;;;;;9.02;100.00;101539.94;5141485;27;45293;-74
2023/02/21 10:14:12;;;;;;;;;64.25;53.50;;;;;9.14;100.00;101544.09;5129529;27;45612;-75
2023/02/21 10:17:06;;;;;;;;;65.75;53.50;;;;;9.23;100.00;101537.09;5141279;27;45401;-75
2023/02/21 10:19:36;;;;;;;;;63.50;51.00;;;;;9.38;100.00;101539.25;5078577;27;46139;-75
2023/02/21 10:22:13;;;;;;;;;69.75;54.50;;;;;9.44;100.00;101530.72;5141198;27;45344;-75
2023/02/21 10:24:38;;;;;;;;;69.50;55.75;;;;;9.59;100.00;101536.38;5141165;27;45504;-76
2023/02/21 10:27:07;;;;;;;;;63.50;51.50;;;;;9.69;100.00;101539.78;5141451;27;45510;-75
2023/02/21 10:29:36;;;;;;;;;69.00;56.00;;;;;9.80;100.00;101536.09;5122536;27;48581;-75
2023/02/21 10:32:03;;;;;;;;;67.75;54.00;;;;;9.87;100.00;101543.47;5140931;27;45373;-75
2023/02/21 10:34:31;;;;;;;;;69.75;56.00;;;;;9.97;100.00;101534.44;5140839;27;45293;-75
2023/02/21 10:37:03;;;;;;;;;68.50;55.50;;;;;10.08;100.00;101521.91;5135873;27;45582;-75
2023/02/21 10:39:57;;;;;;;;;67.25;52.25;;;;;10.22;100.00;101518.75;5137147;27;46233;-75
2023/02/21 10:42:32;;;;;;;;;66.50;50.75;;;;;10.39;100.00;101526.88;5140790;27;45293;-75
2023/02/21 10:44:59;;;;;;;;;61.75;48.75;;;;;10.53;100.00;101527.34;5140985;27;45339;-74
2023/02/21 10:47:40;;;;;;;;;71.50;57.50;;;;;10.62;100.00;101521.06;5140823;27;45311;-74
2023/02/21 10:50:08;;;;;;;;;69.25;55.25;;;;;10.75;100.00;101517.16;5122338;27;47178;-75
2023/02/21 10:52:45;;;;;;;;;58.25;46.75;;;;;10.86;100.00;101516.91;5142266;27;45782;-75
2023/02/21 10:55:19;;;;;;;;;63.50;50.00;;;;;11.01;100.00;101513.69;5148213;27;45380;-75
2023/02/21 10:57:52;;;;;;;;;63.50;52.00;;;;;11.10;100.00;101510.88;5135151;27;45464;-75
2023/02/21 11:00:37;;;;;;;;;68.75;53.75;;;;;11.23;100.00;101515.75;5140002;27;45365;-75
2023/02/21 11:03:19;;;;;;;;;60.25;49.75;;;;;11.39;100.00;101503.53;5144679;27;45287;-75
2023/02/21 11:05:56;;;;;;;;;52.50;43.25;;;;;11.54;100.00;101505.56;5147858;27;45228;-75
2023/02/21 11:08:43;;;;;;;;;54.75;46.50;;;;;11.65;100.00;101502.63;5125228;27;45379;-75
2023/02/21 11:11:09;;;;;;;;;17.75;9.75;;;;;11.77;100.00;101491.66;5122688;27;47699;-75
2023/02/21 11:13:36;;;;;;;;;60.75;48.75;;;;;11.93;100.00;101494.34;5147700;27;45323;-75
2023/02/21 11:16:14;;;;;;;;;64.75;51.50;;;;;12.09;100.00;101501.53;5147779;27;45238;-75
2023/02/21 11:18:39;;;;;;;;;61.00;48.00;;;;;12.21;100.00;101496.69;5147474;27;45983;-75
2023/02/21 11:21:16;;;;;;;;;60.75;48.75;;;;;12.33;100.00;101497.19;5146966;27;46255;-75
2023/02/21 11:23:56;;;;;;;;;56.50;45.75;;;;;12.45;100.00;101492.38;5147278;27;45330;-75
2023/02/21 11:26:22;;;;;;;;;55.75;45.25;;;;;12.54;100.00;101489.69;5147572;27;45344;-75
2023/02/21 11:28:48;;;;;;;;;56.00;45.25;;;;;12.66;100.00;101491.00;5147285;27;45248;-75
2023/02/21 11:31:32;;;;;;;;;57.25;46.25;;;;;12.77;100.00;101486.31;5146610;27;47406;-76
2023/02/21 11:34:00;;;;;;;;;53.75;45.00;;;;;12.88;100.00;101475.28;5147367;27;45428;-76
2023/02/21 11:36:38;;;;;;;;;54.25;44.25;;;;;13.03;100.00;101471.91;5147477;27;45486;-75
2023/02/21 11:39:26;;;;;;;;;52.75;44.75;;;;;13.23;100.00;101472.31;5143393;27;45334;-75
2023/02/21 11:41:53;;;;;;;;;53.50;44.50;;;;;13.43;100.00;101466.53;5147178;27;45634;-74
2023/02/21 11:44:39;;;;;;;;;53.75;44.00;;;;;13.61;100.00;101456.44;5128375;27;45297;-76
2023/02/21 11:47:15;;;;;;;;;51.50;43.25;;;;;13.77;100.00;101449.34;5147253;27;45296;-75
2023/02/21 11:49:52;;;;;;;;;49.25;41.50;;;;;13.92;100.00;101446.69;5129027;27;46603;-75
2023/02/21 11:52:24;;;;;;;;;50.00;42.75;;;;;14.08;100.00;101442.25;5151614;27;45414;-75
2023/02/21 11:54:50;;;;;;;;;53.00;44.25;;;;;14.23;100.00;101439.59;5147621;27;45411;-75
2023/02/21 11:57:31;;;;;;;;;50.50;43.25;;;;;14.43;100.00;101431.06;5128454;27;45480;-76
2023/02/21 12:00:35;;;;;;;;;52.75;43.50;;;;;14.65;100.00;101421.28;5146912;27;45417;-76
2023/02/21 12:03:09;;;;;;;;;42.00;36.25;;;;;14.79;100.00;101411.63;5054246;28;45594;-77
2023/02/21 12:05:43;;;;;;;;;51.75;42.00;;;;;14.93;100.00;101412.63;5058954;28;45438;-76
2023/02/21 12:08:41;;;;;;;;;51.75;41.25;;;;;15.08;100.00;101404.56;5101608;27;45436;-75
2023/02/21 12:11:28;;;;;;;;;49.00;41.67;;;;;15.24;100.00;101398.13;5143509;27;45387;-75
2023/02/21 12:13:59;;;;;;;;;48.00;40.75;;;;;15.36;100.00;101400.34;5138887;27;46219;-76
2023/02/21 12:16:52;;;;;;;;;45.67;37.67;;;;;15.44;100.00;101392.16;5146748;27;45669;-76
2023/02/21 12:19:36;;;;;;;;;44.00;37.00;;;;;15.51;100.00;101385.03;5124660;27;45594;-75
2023/02/21 12:22:30;;;;;;;;;46.75;38.00;;;;;15.59;100.00;101385.94;5142615;27;45368;-76
2023/02/21 12:25:13;;;;;;;;;47.33;39.33;;;;;15.69;100.00;101378.41;5124450;27;48267;-76
2023/02/21 12:27:52;;;;;;;;;48.67;39.67;;;;;15.82;100.00;101376.84;5143342;27;45285;-76
2023/02/21 12:30:48;;;;;;;;;45.00;37.33;;;;;16.01;100.00;101364.63;5143317;27;45594;-76
2023/02/21 12:33:35;;;;;;;;;46.67;39.67;;;;;16.17;100.00;101363.53;5143010;27;45424;-75
2023/02/21 12:36:16;;;;;;;;;42.33;36.33;;;;;16.33;100.00;101358.84;5142919;27;46183;-75
2023/02/21 12:39:00;;;;;;;;;46.00;38.67;;;;;16.43;100.00;101359.31;5141305;27;45429;-76
2023/02/21 12:41:54;;;;;;;;;38.67;34.00;;;;;16.63;100.00;101358.59;5143067;27;45396;-76
2023/02/21 12:44:51;;;;;;;;;44.00;36.00;;;;;16.78;100.00;101345.03;5143086;27;45435;-76
2023/02/21 12:47:41;;;;;;;;;37.00;32.33;;;;;16.92;100.00;101343.22;5131276;27;46321;-76
2023/02/21 12:50:42;;;;;;;;;35.67;32.67;;;;;16.98;100.00;101334.38;5142681;27;45258;-75
2023/02/21 12:53:25;;;;;;;;;40.00;34.00;;;;;17.10;99.88;101328.44;5113155;27;45372;-75
2023/02/21 12:56:22;;;;;;;;;35.00;31.67;;;;;17.19;99.91;101324.53;5143028;27;45247;-75
2023/02/21 12:58:55;;;;;;;;;32.67;30.33;;;;;17.23;99.62;101315.03;5107631;27;47357;-75
2023/02/21 13:01:25;;;;;;;;;39.67;33.33;;;;;17.29;98.71;101308.00;5142921;27;45367;-76
2023/02/21 13:04:05;;;;;;;;;39.67;33.67;;;;;17.33;98.71;101301.19;5142396;27;45468;-75
2023/02/21 13:06:37;;;;;;;;;39.33;34.00;;;;;17.40;98.27;101290.44;5123485;27;47067;-75
2023/02/21 13:09:05;;;;;;;;;39.67;34.00;;;;;17.38;99.12;101284.44;5142628;27;45780;-75
2023/02/21 13:11:40;;;;;;;;;38.33;33.00;;;;;17.36;97.90;101286.53;5142373;27;45731;-76
2023/02/21 13:14:27;;;;;;;;;40.00;35.00;;;;;17.40;98.11;101274.31;5142617;27;45184;-75
2023/02/21 13:16:53;;;;;;;;;38.50;33.50;;;;;17.44;97.79;101270.19;5141694;27;45394;-75
2023/02/21 13:19:20;;;;;;;;;36.67;31.67;;;;;17.56;97.48;101269.53;5142426;27;45317;-75
2023/02/21 13:22:03;;;;;;;;;36.33;32.00;;;;;17.99;98.72;101262.88;5142031;27;45341;-76
2023/02/21 13:24:58;;;;;;;;;34.00;31.33;;;;;18.39;95.65;101267.31;5142398;27;45346;-76
2023/02/21 13:27:42;;;;;;;;;33.67;30.67;;;;;18.40;93.85;101252.81;5132354;27;45348;-76
2023/02/21 13:30:13;;;;;;;;;42.67;34.67;;;;;18.62;93.03;101252.50;5107346;27;47625;-76
2023/02/21 13:32:48;;;;;;;;;39.67;32.67;;;;;18.73;91.67;101251.81;5137938;27;45366;-75
2023/02/21 13:35:19;;;;;;;;;39.67;33.67;;;;;18.93;92.08;101240.91;5141895;27;45252;-75
2023/02/21 13:37:49;;;;;;;;;37.67;33.00;;;;;19.20;92.69;101236.38;5122457;27;46036;-76
2023/02/21 13:40:20;;;;;;;;;33.33;31.00;;;;;19.34;89.61;101237.94;5134676;27;46263;-77